sensor_id;sensor_type;location;lat;lon;timestamp;pressure;altitude;pressure_sealevel;temperature
72675;BMP280;60752;53.962;9.614;2023-03-24T00:21:42;58425.22;;;4.72
72675;BMP280;60752;53.962;9.614;2023-03-24T00:51:44;58429.16;;;4.72
72675;BMP280;60752;53.962;9.614;2023-03-24T01:21:47;58419.31;;;4.72
72675;BMP280;60752;53.962;9.614;2023-03-24T01:51:52;58421.28;;;4.72
72675;BMP280;60752;53.962;9.614;2023-03-24T02:22:22;58429.16;;;4.72
72675;BMP280;60752;53.962;9.614;2023-03-24T02:52:33;58439.00;;;4.72
72675;BMP280;60752;53.962;9.614;2023-03-24T03:22:40;58437.03;;;4.72
72675;BMP280;60752;53.962;9.614;2023-03-24T03:52:43;58439.00;;;4.72
72675;BMP280;60752;53.962;9.614;2023-03-24T04:22:59;58409.47;;;4.72
72675;BMP280;60752;53.962;9.614;2023-03-24T04:53:02;58419.31;;;4.72
72675;BMP280;60752;53.962;9.614;2023-03-24T05:23:04;58383.88;;;4.72
72675;BMP280;60752;53.962;9.614;2023-03-24T05:53:06;58401.59;;;4.72
72675;BMP280;60752;53.962;9.614;2023-03-24T06:23:08;58383.88;;;4.72
72675;BMP280;60752;53.962;9.614;2023-03-24T06:53:10;58405.53;;;4.72
72675;BMP280;60752;53.962;9.614;2023-03-24T07:23:12;58417.34;;;4.72
72675;BMP280;60752;53.962;9.614;2023-03-24T07:53:14;58474.44;;;4.72
72675;BMP280;60752;53.962;9.614;2023-03-24T08:23:16;58397.66;;;4.72
72675;BMP280;60752;53.962;9.614;2023-03-24T08:53:18;58403.56;;;4.72
72675;BMP280;60752;53.962;9.614;2023-03-24T09:23:20;58393.72;;;4.72
72675;BMP280;60752;53.962;9.614;2023-03-24T09:53:27;58403.56;;;4.72
72675;BMP280;60752;53.962;9.614;2023-03-24T10:23:35;58403.56;;;4.72
72675;BMP280;60752;53.962;9.614;2023-03-24T10:53:40;58413.41;;;4.72
72675;BMP280;60752;53.962;9.614;2023-03-24T11:23:42;58405.53;;;4.72
72675;BMP280;60752;53.962;9.614;2023-03-24T11:53:47;58405.53;;;4.72
72675;BMP280;60752;53.962;9.614;2023-03-24T12:23:56;58444.91;;;4.72
72675;BMP280;60752;53.962;9.614;2023-03-24T12:54:08;58442.94;;;4.72
72675;BMP280;60752;53.962;9.614;2023-03-24T13:24:16;58419.31;;;4.72
72675;BMP280;60752;53.962;9.614;2023-03-24T13:54:20;58407.50;;;4.72
72675;BMP280;60752;53.962;9.614;2023-03-24T14:24:25;58440.97;;;4.72
72675;BMP280;60752;53.962;9.614;2023-03-24T14:54:31;58423.25;;;4.72
72675;BMP280;60752;53.962;9.614;2023-03-24T15:24:36;58421.28;;;4.72
72675;BMP280;60752;53.962;9.614;2023-03-24T15:54:40;58439.00;;;4.72
72675;BMP280;60752;53.962;9.614;2023-03-24T16:24:42;58464.59;;;4.72
72675;BMP280;60752;53.962;9.614;2023-03-24T16:54:43;58419.31;;;4.72
72675;BMP280;60752;53.962;9.614;2023-03-24T17:24:45;58462.63;;;4.72
72675;BMP280;60752;53.962;9.614;2023-03-24T17:54:47;58448.84;;;4.72
72675;BMP280;60752;53.962;9.614;2023-03-24T18:24:49;58484.28;;;4.72
72675;BMP280;60752;53.962;9.614;2023-03-24T18:54:51;58476.41;;;4.72
72675;BMP280;60752;53.962;9.614;2023-03-24T19:24:52;58440.97;;;4.72
72675;BMP280;60752;53.962;9.614;2023-03-24T19:54:54;58468.53;;;4.72
72675;BMP280;60752;53.962;9.614;2023-03-24T20:24:56;58464.59;;;4.72
72675;BMP280;60752;53.962;9.614;2023-03-24T20:54:58;58486.25;;;4.72
72675;BMP280;60752;53.962;9.614;2023-03-24T21:25:00;58464.59;;;4.72
72675;BMP280;60752;53.962;9.614;2023-03-24T21:55:01;58468.53;;;4.72
72675;BMP280;60752;53.962;9.614;2023-03-24T22:25:05;58462.63;;;4.72
72675;BMP280;60752;53.962;9.614;2023-03-24T22:55:08;58464.59;;;4.72
72675;BMP280;60752;53.962;9.614;2023-03-24T23:25:10;58458.69;;;4.72
72675;BMP280;60752;53.962;9.614;2023-03-24T23:55:13;58466.56;;;4.72
